SEGU

Simon Bolivar International Airport

Airport
ICAO code
SEGU
IATA Code
GYE
Summary
ICAO Region
CARSAM
ICAO Territory
Location

, Guayas

Serving
Guayaquil
Elevation
19 ft
Coordinates
2° 9' 27" S , 79° 53' 1" W
Metar
Observation
SEGU 271100Z 22008KT 9999 FEW010 BKN026 21/18 Q1011 NOSIG RMK A2989
Station
Guayaquil / Simon Bolivar
Date/Time
2022-09-27 11:00:00
Wind direction
220°
Wind speed
08 kts
Lowest cloud amount
few clouds
Temperature
21°C
Dew point
18°C
Humidity
83%
QNH
1011 hPa
Weather condition
n/a

Runways

Designator Length Width Surface Rops
3/21 2790 46 ASP Yes/Yes

Airport map

Aerial View

SKYbrary Partners:

Safety knowledge contributed by: